Sotirios Mitroglou

Scout - Panathinaikos
4 Jun 2028
Sunday
Process

Personality

Adaptability (15) Ambition (4) Controversy (7) Loyalty (10) Pressure (9) Professionalism (15) Sportsmanship (7) Temperament (5)

Profile

Coaching Style Democratic
License National A
Determination 9
Man Management 7
Motivating 9
Discipline 9
Job Satisfaction
100%
Fatigue
0%
Role Scout
Wage 87.3K p/w
Contract 14.03.2029

Performance

Behaviour Good
Training Effectiveness
49%
Player Development
55%
Injury Prevention
45%
Tactical Implementation
60%

Recent Events

Assessed a player now
Assessed a player now

Currently Monitoring

126
Player Club Status Ability Confidence Watched Last Observed Latest Vote
Cundo Leicester City Active 143 / 138 40% 2 01.06.2028 -
Martin Frýdek Aris Thessaloniki Lost 103 / 108 69% 1 01.06.2028 -
Gustavo Hamer Sheffield United Active 144 / 140 40% 1 01.06.2028 -
Bojan Kovačević Cádiz Active 138 / 139 40% 1 01.06.2028 -
Daijiro Chirino Almería Active 143 / 132 40% 1 01.06.2028 -
Jorge Salinas Racing Santander Active 129 / 136 40% 1 01.06.2028 -
Igor Tyjon Salford City Active 110 / 120 40% 1 01.06.2028 -
Pedro Zenit Active 131 / 144 40% 2 30.01.2028 -
Keny Arroyo Cruzeiro Active 131 / 128 40% 2 30.01.2028 -
Christos Loukaidis AE Kition Active 99 / 104 40% 1 30.01.2028 -
Dilan Godoy Vélez Active 104 / 121 40% 3 28.01.2028 -
Henrique Carmo CSKA Moscow Active 135 / 138 40% 4 28.01.2028 -
André Miranda Porto Active 115 / 114 40% 1 28.01.2028 -
Lander Astiazarán Real Sociedad Active 108 / 111 40% 3 27.01.2028 -
Mateus Mané Wolverhampton Active 141 / 146 40% 1 24.01.2028 -
Diego Medina Cortulua Active 102 / 115 40% 2 20.01.2028 -
Gabriel Lopes Santiago Wanderers Active 103 / 102 40% 1 20.01.2028 -
Marcelo Ryan FC Tokyo Active 133 / 126 40% 1 17.01.2028 -
Sorriso Famalicao Active 136 / 130 40% 1 17.01.2028 -
Luciano Cosentino Vegalta Sendai Active 136 / 122 40% 1 17.01.2028 -
José Devecchi San Lorenzo Active 116 / 115 40% 1 10.01.2028 -
Álex Remiro Real Sociedad Active 157 / 151 40% 1 10.01.2028 -
Luke Baartman Ghazl El Mahalla Active 119 / 125 40% 2 07.01.2028 -
Kein Sato FC Tokyo Active 123 / 132 40% 1 01.01.2028 -
Josh Sargent Toronto FC Active 122 / 124 40% 1 01.01.2028 -
Teo Rodríguez Pagano San Lorenzo Active 122 / 124 40% 1 28.08.2027 -
Serge Daura Dynamo Douala Active 101 / 104 40% 1 26.08.2027 -
Didier Dawson Envigado Active 113 / 104 40% 1 26.08.2027 -
Wilmar Borja La Equidad Active 110 / 103 40% 1 25.08.2027 -
Sadriddin Hasanov Bunyodkor Active 105 / 98 40% 1 25.08.2027 -
Yojan Garcés America de Cali Active 118 / 125 40% 1 23.08.2027 -
Sunusi Ibrahim Hapoel Tel Aviv Active 115 / 107 40% 1 23.08.2027 -
Giannis Theodosoulakis OFI Active 118 / 131 40% 1 23.08.2027 -
Agustín Venezia Iquique Active 109 / 117 40% 2 22.08.2027 -
Adrian Svanbäck BK Hacken Active 112 / 127 40% 1 22.08.2027 -
Jovon Makama Orlando City Active 129 / 132 40% 2 20.08.2027 -
Adar Ratner Maccabi Petach Tikva Active 97 / 114 40% 1 20.08.2027 -
Araphat Mohammed Ashanti Gold Active 102 / 107 40% 2 19.08.2027 -
Otto Stange Hamburger SV Active 122 / 120 40% 2 18.08.2027 -
Pablo Suárez Rentistas Active 98 / 106 40% 1 18.08.2027 -
Alphadjo Cissé Hellas Verona Active 133 / 138 40% 1 18.08.2027 -
Frederik Ihler IF Elfsborg Active 101 / 116 40% 1 17.08.2027 -
Musa Malik Ikorodu City Active 84 / 103 40% 1 14.08.2027 -
Jonathan Asp-Jensen Deportivo La Coruña Active 129 / 135 40% 1 14.08.2027 -
Mattia Rutigliano Pro Vercelli Active 97 / 113 40% 2 12.08.2027 -
Maren Kefas Plateau United Active 86 / 101 40% 1 12.08.2027 -
Stiven Shpendi Empoli Active 125 / 118 40% 5 11.08.2027 -
Agustín Ruberto River Plate Active 114 / 134 40% 1 11.08.2027 -
Miguel Figueiredo Benfica Active 122 / 125 40% 1 09.08.2027 -
Mateo Silvetti New England Revolution Active 115 / 121 40% 2 08.08.2027 -
Sascha Britschgi Fiorentina Active 128 / 129 40% 2 06.08.2027 -
Morgan Dala New York Red Bulls Active 120 / 132 40% 1 06.08.2027 -
Federico Coletta Benfica Active 110 / 107 40% 1 05.08.2027 -
Gorka Gorosabel Real Sociedad Active 109 / 117 40% 4 03.08.2027 -
Tommaso Ravaglioli AlbinoLeffe Active 89 / 103 40% 1 03.08.2027 -
Gonçalo Sousa Porto Active 117 / 130 40% 1 03.08.2027 -
Mohamadou Kanté West Ham United Active 116 / 133 40% 3 30.07.2027 -
Marco Oroná Antofagasta Active 90 / 108 40% 2 30.07.2027 -
Daniel Kelly West Ham United Active 111 / 117 40% 1 30.07.2027 -
Martim Cunha Porto Active 106 / 116 40% 2 24.07.2027 -
Herba Guirassy Monaco Active 125 / 135 40% 1 24.07.2027 -
Tiago Freitas Benfica Active 111 / 117 40% 2 23.07.2027 -
Wilfred Correa Caracas Active 98 / 94 40% 1 23.07.2027 -
Jorge Meireles AVS Active 109 / 123 40% 3 22.07.2027 -
Alan Coria Villarreal Active 106 / 114 40% 3 20.07.2027 -
Joel Canchimbo Barranquilla Active 114 / 122 40% 2 20.07.2027 -
Samed Baždar Sint-Truiden Active 139 / 126 40% 2 18.07.2027 -
Rocco Vata Watford Active 127 / 131 40% 1 18.07.2027 -
Jonathan Rowe Bologna Active 134 / 142 40% 1 18.07.2027 -
Yaghoub Barage Persepolis Active 116 / 113 40% 1 18.07.2027 -
Lautaro Millán Independiente Active 119 / 124 40% 2 17.07.2027 -
Matheus Gonçalves Al-Ahli Active 137 / 143 40% 1 17.07.2027 -
Job Ochieng Real Sociedad Active 107 / 114 40% 2 14.07.2027 -
Jacen Russell-Rowe Toulouse FC Active 126 / 128 40% 1 14.07.2027 -
Jakob Napoleon Romsaas Charleroi Active 115 / 120 40% 1 13.07.2027 -
Tibe De Vlieger KAA Gent Active 104 / 115 40% 1 11.07.2027 -
Lucas Ferreira Shakhtar Active 127 / 124 40% 2 07.07.2027 -
Mohamed Touré Viktoria Plzen Active 99 / 116 40% 1 07.07.2027 -
Moses Cobnan Krasnodar Active 115 / 126 40% 2 05.07.2027 -
Vanja Dragojević Partizan Active 109 / 118 40% 2 05.07.2027 -
Andrija Bulatović RC Lens Active 131 / 124 40% 1 05.07.2027 -
Milan Roganović Partizan Active 107 / 126 40% 1 05.07.2027 -
Paulo Cardoso Sporting CP Active 90 / 96 40% 1 30.06.2027 -
Luís Guilherme Sporting CP Active 140 / 132 40% 1 30.06.2027 -
Yassine Khalifi Charleroi Active 107 / 114 40% 2 29.06.2027 -
Borna Knezović Casarano Active 99 / 107 40% 1 25.06.2027 -
Moctar Diop KAA Gent Active 123 / 120 40% 2 23.06.2027 -
Facundo Kruspzky Al Wahda Active 137 / 114 40% 1 23.06.2027 -
Lukáš Mašek Slovan Liberec Active 115 / 122 40% 2 18.06.2027 -
Malik Mothersille Stockport County Active 117 / 120 40% 2 17.06.2027 -
David Romero Parma Active 125 / 125 40% 1 16.06.2027 -
Ryan Oné Sheffield United Active 115 / 125 40% 1 16.06.2027 -
Tobías Cervera SonderjyskE Active 123 / 122 40% 2 09.06.2027 -
Myron van Brederode KV Mechelen Active 120 / 120 40% 1 09.06.2027 -
Dom Ballard Leyton Orient Active 117 / 130 40% 1 08.06.2027 -
Enis Destan Konyaspor Active 133 / 133 40% 1 08.06.2027 -
Bogdan Petrović TSC Active 110 / 106 40% 2 01.06.2027 -
Ethan Williams Peterborough United Active 113 / 116 40% 1 30.01.2027 -
Tyreece Campbell Charlton Athletic Active 121 / 118 40% 1 29.01.2027 -
Marezi Portsmouth Active 118 / 121 40% 1 29.01.2027 -
Kelly Saravanan Salford City Active 109 / 109 40% 2 27.01.2027 -
Dale Taylor Blackpool Active 107 / 113 40% 1 26.01.2027 -
Bertuğ Yıldırım Basaksehir Active 120 / 128 40% 1 24.01.2027 -
Christian Saydee Wigan Athletic Active 105 / 119 40% 2 21.01.2027 -
Kelvin Flórez Udinese Active 122 / 124 40% 1 20.01.2027 -
Bradley Fink Wycombe Wanderers Active 110 / 105 40% 2 12.01.2027 -
Sam Bell Bristol City Active 111 / 121 40% 1 12.01.2027 -
Renato Júnior Al Wasl Active 107 / 125 40% 1 05.01.2027 -
Eddie Salcedo OFI Active 121 / 125 40% 2 30.08.2026 -
Ştefan Baiaram Universitatea Craiova Active 117 / 123 40% 1 30.08.2026 -
Archie Goodwin Charlotte Football Club Active 96 / 102 40% 1 24.08.2026 -
Carlos Paraco Metalist Active 107 / 110 40% 1 24.08.2026 -
Theo Corbeanu Toronto FC Active 127 / 111 40% 1 22.08.2026 -
Bruno Damiani Philadelphia Union Active 104 / 105 40% 1 22.08.2026 -
Mihlali Mayambela Omonoia Active 119 / 127 40% 1 21.08.2026 -
Marcelo Allende Mamelodi Sundowns Active 119 / 139 40% 1 21.08.2026 -
Andrija Živković PAOK Active 136 / 133 40% 1 21.08.2026 -
Gaëtan Weissbeck Apollon Active 107 / 114 40% 2 20.08.2026 -
Carel Eiting Omonoia Active 134 / 119 40% 1 20.08.2026 -
Bruno Almeida AEL Active 124 / 120 40% 1 20.08.2026 -
Yaroslav Gladyshev Dinamo Moscow Active 122 / 119 40% 1 19.08.2026 -
Nikolas Ioannou Pafos Active 107 / 106 40% 1 19.08.2026 -
Daniel Mancini APOEL Active 108 / 112 40% 1 19.08.2026 -
Petter Nosa Dahl Rapid Wien Active 116 / 127 40% 1 17.08.2026 -
Jens Petter Hauge Bodo/Glimt Active 144 / 140 40% 1 03.08.2026 -
Mads Roerslev Southampton Active 120 / 127 40% 1 03.08.2026 -